PKVK1: Neosho R, nr Parkerville KS

Data processed at Wed May 22 2019 23:30


All information presented herein is the property of the government of the United States of America and may be revised or deleted at any time without prior notice.
Dissemination of this information without the expressed written consent of the Public Affairs Office, Tulsa District U.S. Army Corps of Engineers is strictly prohibited.
These data are gathered electronically and, as presented, have not undergone any form of quality control. These data are not guaranteed to be valid or correct.
Go to home page.
Go to station list.
Go to home page.

Downstream station:


Previous Day
Next Day
Current Day
    
SHEF ID:       PKVK1     NEOSHO R NR PARKERVILLE, KS
STATION TYPE:  
Regulating: Stage =    20.00, Flow =     3767

               PRECIP     STAGE  RIV-FLOW  BAT-LOAD
                   in        ft       cfs      volt
              Ccp-Rev   Ccp-Rev   Ccp-Rev   Ccp-Rev
(US/Central)
05/22 00:00      0.00     11.37       704     12.65
05/22 01:00      0.00     11.10       627     12.65
05/22 02:00      0.00     10.88       565     12.57
05/22 03:00      0.00     10.66       505     12.57
05/22 04:00      0.00     10.49       459     12.57
05/22 05:00      0.00     10.33       417     12.57
05/22 06:00      0.00     10.19       380     12.57
05/22 07:00      0.00     10.07       350     12.57
05/22 08:00      0.00      9.98       327     13.05
05/22 09:00      0.00      9.89       305     13.44
05/22 10:00      0.00      9.82       288     13.60
05/22 11:00      0.00      9.75       271     13.60
05/22 12:00      0.00      9.68       254     13.60
05/22 13:00      0.00      9.64       247     13.68
05/22 14:00      0.00      9.58       236     13.60
05/22 15:00      0.00      9.53       227     13.44
05/22 16:00      0.00      9.49       220     13.21
05/22 17:00      0.00      9.44       211     13.05
05/22 18:00      0.00      9.40       204     12.97
05/22 19:00      0.00      9.37       199     12.97
05/22 20:00      0.00      9.33       192     12.89
05/22 21:00      0.00      9.29       186     12.89
05/22 22:00      0.00      9.27       183     12.81
05/22 23:00      ----      ----      ----      ----